sensor_id;sensor_type;location;lat;lon;timestamp;temperature;humidity
11629;DHT22;5870;52.320;4.970;2022-07-22T00:02:05;22.40;99.90
11629;DHT22;5870;52.320;4.970;2022-07-22T00:04:30;22.50;99.90
11629;DHT22;5870;52.320;4.970;2022-07-22T00:06:56;22.50;99.90
11629;DHT22;5870;52.320;4.970;2022-07-22T00:09:21;22.50;99.90
11629;DHT22;5870;52.320;4.970;2022-07-22T00:11:47;22.50;99.90
11629;DHT22;5870;52.320;4.970;2022-07-22T00:14:13;22.40;99.90
11629;DHT22;5870;52.320;4.970;2022-07-22T00:16:38;22.40;99.90
11629;DHT22;5870;52.320;4.970;2022-07-22T00:19:04;22.30;99.90
11629;DHT22;5870;52.320;4.970;2022-07-22T00:21:30;22.20;99.90
11629;DHT22;5870;52.320;4.970;2022-07-22T00:23:55;22.30;99.90
11629;DHT22;5870;52.320;4.970;2022-07-22T00:26:21;22.40;99.90
11629;DHT22;5870;52.320;4.970;2022-07-22T00:28:46;22.40;99.90
11629;DHT22;5870;52.320;4.970;2022-07-22T00:31:12;22.40;99.90
11629;DHT22;5870;52.320;4.970;2022-07-22T00:33:38;22.40;99.90
11629;DHT22;5870;52.320;4.970;2022-07-22T00:36:03;22.40;99.90
11629;DHT22;5870;52.320;4.970;2022-07-22T00:38:29;22.50;99.90
11629;DHT22;5870;52.320;4.970;2022-07-22T00:40:55;22.40;99.90
11629;DHT22;5870;52.320;4.970;2022-07-22T00:43:20;22.40;99.90
11629;DHT22;5870;52.320;4.970;2022-07-22T00:45:46;22.40;99.90
11629;DHT22;5870;52.320;4.970;2022-07-22T00:48:12;22.50;99.90
11629;DHT22;5870;52.320;4.970;2022-07-22T00:50:37;22.40;99.90
11629;DHT22;5870;52.320;4.970;2022-07-22T00:53:03;22.40;99.90
11629;DHT22;5870;52.320;4.970;2022-07-22T00:55:29;22.40;99.90
11629;DHT22;5870;52.320;4.970;2022-07-22T00:57:55;22.40;99.90
11629;DHT22;5870;52.320;4.970;2022-07-22T01:00:22;22.30;99.90
11629;DHT22;5870;52.320;4.970;2022-07-22T01:02:47;22.20;99.90
11629;DHT22;5870;52.320;4.970;2022-07-22T01:05:13;22.10;99.90
11629;DHT22;5870;52.320;4.970;2022-07-22T01:07:39;22.00;99.90
11629;DHT22;5870;52.320;4.970;2022-07-22T01:10:06;22.00;99.90
11629;DHT22;5870;52.320;4.970;2022-07-22T01:12:32;22.00;99.90
11629;DHT22;5870;52.320;4.970;2022-07-22T01:14:58;22.00;99.90
11629;DHT22;5870;52.320;4.970;2022-07-22T01:17:23;22.00;99.90
11629;DHT22;5870;52.320;4.970;2022-07-22T01:19:50;21.80;99.90
11629;DHT22;5870;52.320;4.970;2022-07-22T01:22:15;21.90;99.90
11629;DHT22;5870;52.320;4.970;2022-07-22T01:24:41;21.90;99.90
11629;DHT22;5870;52.320;4.970;2022-07-22T01:27:07;21.90;99.90
11629;DHT22;5870;52.320;4.970;2022-07-22T01:29:32;22.00;99.90
11629;DHT22;5870;52.320;4.970;2022-07-22T01:31:58;22.00;99.90
11629;DHT22;5870;52.320;4.970;2022-07-22T01:34:24;22.00;99.90
11629;DHT22;5870;52.320;4.970;2022-07-22T01:36:49;22.20;99.90
11629;DHT22;5870;52.320;4.970;2022-07-22T01:39:15;22.10;99.90
11629;DHT22;5870;52.320;4.970;2022-07-22T01:41:41;22.20;99.90
11629;DHT22;5870;52.320;4.970;2022-07-22T01:44:07;22.20;99.90
11629;DHT22;5870;52.320;4.970;2022-07-22T01:46:32;22.30;99.90
11629;DHT22;5870;52.320;4.970;2022-07-22T01:48:58;22.30;99.90
11629;DHT22;5870;52.320;4.970;2022-07-22T01:51:24;22.40;99.90
11629;DHT22;5870;52.320;4.970;2022-07-22T01:53:49;22.30;99.90
11629;DHT22;5870;52.320;4.970;2022-07-22T01:56:15;22.40;99.90
11629;DHT22;5870;52.320;4.970;2022-07-22T01:58:41;22.30;99.90
11629;DHT22;5870;52.320;4.970;2022-07-22T02:01:07;22.40;99.90
11629;DHT22;5870;52.320;4.970;2022-07-22T02:03:33;22.40;99.90
11629;DHT22;5870;52.320;4.970;2022-07-22T02:05:59;22.40;99.90
11629;DHT22;5870;52.320;4.970;2022-07-22T02:08:24;22.40;99.90
11629;DHT22;5870;52.320;4.970;2022-07-22T02:10:50;22.40;99.90
11629;DHT22;5870;52.320;4.970;2022-07-22T02:13:16;22.40;99.90
11629;DHT22;5870;52.320;4.970;2022-07-22T02:15:41;22.40;99.90
11629;DHT22;5870;52.320;4.970;2022-07-22T02:18:17;22.40;99.90
11629;DHT22;5870;52.320;4.970;2022-07-22T02:20:43;21.80;99.90
11629;DHT22;5870;52.320;4.970;2022-07-22T02:23:09;22.40;99.90
11629;DHT22;5870;52.320;4.970;2022-07-22T02:25:37;22.40;99.90
11629;DHT22;5870;52.320;4.970;2022-07-22T02:28:02;22.40;99.90
11629;DHT22;5870;52.320;4.970;2022-07-22T02:30:28;22.40;99.90
11629;DHT22;5870;52.320;4.970;2022-07-22T02:32:54;22.40;99.90
11629;DHT22;5870;52.320;4.970;2022-07-22T02:35:20;22.40;99.90
11629;DHT22;5870;52.320;4.970;2022-07-22T02:37:45;22.30;99.90
11629;DHT22;5870;52.320;4.970;2022-07-22T02:40:11;22.30;99.90
11629;DHT22;5870;52.320;4.970;2022-07-22T02:42:37;21.30;99.90
11629;DHT22;5870;52.320;4.970;2022-07-22T02:45:03;22.40;99.90
11629;DHT22;5870;52.320;4.970;2022-07-22T02:47:29;22.40;99.90
11629;DHT22;5870;52.320;4.970;2022-07-22T02:49:54;22.30;99.90
11629;DHT22;5870;52.320;4.970;2022-07-22T02:52:20;22.30;99.90
11629;DHT22;5870;52.320;4.970;2022-07-22T02:54:45;22.30;99.90
11629;DHT22;5870;52.320;4.970;2022-07-22T02:57:11;22.30;99.90
11629;DHT22;5870;52.320;4.970;2022-07-22T02:59:37;22.20;99.90
11629;DHT22;5870;52.320;4.970;2022-07-22T03:02:02;22.10;99.90
11629;DHT22;5870;52.320;4.970;2022-07-22T03:04:28;22.00;99.90
11629;DHT22;5870;52.320;4.970;2022-07-22T03:06:54;22.00;99.90
11629;DHT22;5870;52.320;4.970;2022-07-22T03:09:20;22.00;99.90
11629;DHT22;5870;52.320;4.970;2022-07-22T03:11:45;21.90;99.90
11629;DHT22;5870;52.320;4.970;2022-07-22T03:14:11;21.80;99.90
11629;DHT22;5870;52.320;4.970;2022-07-22T03:16:37;21.70;99.90
11629;DHT22;5870;52.320;4.970;2022-07-22T03:19:03;21.60;99.90
11629;DHT22;5870;52.320;4.970;2022-07-22T03:21:28;21.70;99.90
11629;DHT22;5870;52.320;4.970;2022-07-22T03:23:54;21.60;99.90
11629;DHT22;5870;52.320;4.970;2022-07-22T03:26:23;21.60;99.90
11629;DHT22;5870;52.320;4.970;2022-07-22T03:28:49;21.70;99.90
11629;DHT22;5870;52.320;4.970;2022-07-22T03:31:15;21.80;99.90
11629;DHT22;5870;52.320;4.970;2022-07-22T03:33:40;21.90;99.90
11629;DHT22;5870;52.320;4.970;2022-07-22T03:36:06;22.00;99.90
11629;DHT22;5870;52.320;4.970;2022-07-22T03:38:34;22.00;99.90
11629;DHT22;5870;52.320;4.970;2022-07-22T03:40:59;22.00;99.90
11629;DHT22;5870;52.320;4.970;2022-07-22T03:43:25;22.10;99.90
11629;DHT22;5870;52.320;4.970;2022-07-22T03:45:50;22.10;99.90
11629;DHT22;5870;52.320;4.970;2022-07-22T03:48:16;22.20;99.90
11629;DHT22;5870;52.320;4.970;2022-07-22T03:50:42;22.20;99.90
11629;DHT22;5870;52.320;4.970;2022-07-22T03:53:07;22.20;99.90
11629;DHT22;5870;52.320;4.970;2022-07-22T03:55:33;22.20;99.90
11629;DHT22;5870;52.320;4.970;2022-07-22T03:57:58;22.20;99.90
11629;DHT22;5870;52.320;4.970;2022-07-22T04:00:24;22.20;99.90
11629;DHT22;5870;52.320;4.970;2022-07-22T04:02:50;22.30;99.90
11629;DHT22;5870;52.320;4.970;2022-07-22T04:05:15;22.30;99.90
11629;DHT22;5870;52.320;4.970;2022-07-22T04:07:41;22.20;99.90
11629;DHT22;5870;52.320;4.970;2022-07-22T04:10:07;22.30;99.90
11629;DHT22;5870;52.320;4.970;2022-07-22T04:12:37;22.30;99.90
11629;DHT22;5870;52.320;4.970;2022-07-22T04:15:04;22.20;99.90
11629;DHT22;5870;52.320;4.970;2022-07-22T04:17:30;22.30;99.90
11629;DHT22;5870;52.320;4.970;2022-07-22T04:19:56;22.30;99.90
11629;DHT22;5870;52.320;4.970;2022-07-22T04:22:22;22.30;99.90
11629;DHT22;5870;52.320;4.970;2022-07-22T04:24:48;22.20;99.90
11629;DHT22;5870;52.320;4.970;2022-07-22T04:27:13;22.30;99.90
11629;DHT22;5870;52.320;4.970;2022-07-22T04:29:39;22.30;99.90
11629;DHT22;5870;52.320;4.970;2022-07-22T04:32:05;22.30;99.90
11629;DHT22;5870;52.320;4.970;2022-07-22T04:34:30;22.30;99.90
11629;DHT22;5870;52.320;4.970;2022-07-22T04:36:56;22.30;99.90
11629;DHT22;5870;52.320;4.970;2022-07-22T04:39:22;22.30;99.90
11629;DHT22;5870;52.320;4.970;2022-07-22T04:41:48;22.30;99.90
11629;DHT22;5870;52.320;4.970;2022-07-22T04:44:13;22.30;99.90
11629;DHT22;5870;52.320;4.970;2022-07-22T04:46:39;22.30;99.90
11629;DHT22;5870;52.320;4.970;2022-07-22T04:49:04;22.30;99.90
11629;DHT22;5870;52.320;4.970;2022-07-22T04:51:30;22.40;99.90
11629;DHT22;5870;52.320;4.970;2022-07-22T04:53:56;22.30;99.90
11629;DHT22;5870;52.320;4.970;2022-07-22T04:56:21;22.30;99.90
11629;DHT22;5870;52.320;4.970;2022-07-22T04:58:47;22.30;99.90
11629;DHT22;5870;52.320;4.970;2022-07-22T05:01:13;22.30;99.90
11629;DHT22;5870;52.320;4.970;2022-07-22T05:03:39;22.30;99.90
11629;DHT22;5870;52.320;4.970;2022-07-22T05:06:05;22.30;99.90
11629;DHT22;5870;52.320;4.970;2022-07-22T05:08:31;22.30;99.90
11629;DHT22;5870;52.320;4.970;2022-07-22T05:10:56;22.30;99.90
11629;DHT22;5870;52.320;4.970;2022-07-22T05:13:22;22.30;99.90
11629;DHT22;5870;52.320;4.970;2022-07-22T05:15:48;22.30;99.90
11629;DHT22;5870;52.320;4.970;2022-07-22T05:18:14;22.30;99.90
11629;DHT22;5870;52.320;4.970;2022-07-22T05:20:39;22.30;99.90
11629;DHT22;5870;52.320;4.970;2022-07-22T05:23:05;22.30;99.90
11629;DHT22;5870;52.320;4.970;2022-07-22T05:25:30;22.30;99.90
11629;DHT22;5870;52.320;4.970;2022-07-22T05:27:56;22.20;99.90
11629;DHT22;5870;52.320;4.970;2022-07-22T05:30:22;22.30;99.90
11629;DHT22;5870;52.320;4.970;2022-07-22T05:32:48;22.30;99.90
11629;DHT22;5870;52.320;4.970;2022-07-22T05:35:13;22.30;99.90
11629;DHT22;5870;52.320;4.970;2022-07-22T05:37:39;22.30;99.90
11629;DHT22;5870;52.320;4.970;2022-07-22T05:40:05;22.30;99.90
11629;DHT22;5870;52.320;4.970;2022-07-22T05:42:31;22.30;99.90
11629;DHT22;5870;52.320;4.970;2022-07-22T05:44:56;22.30;99.90
11629;DHT22;5870;52.320;4.970;2022-07-22T05:47:22;22.30;99.90
11629;DHT22;5870;52.320;4.970;2022-07-22T05:49:47;22.30;99.90
11629;DHT22;5870;52.320;4.970;2022-07-22T05:52:13;22.30;99.90
11629;DHT22;5870;52.320;4.970;2022-07-22T05:54:39;22.30;99.90
11629;DHT22;5870;52.320;4.970;2022-07-22T05:57:05;22.30;99.90
11629;DHT22;5870;52.320;4.970;2022-07-22T05:59:33;22.30;99.90
11629;DHT22;5870;52.320;4.970;2022-07-22T06:01:59;22.30;99.90
11629;DHT22;5870;52.320;4.970;2022-07-22T06:04:25;22.30;99.90
11629;DHT22;5870;52.320;4.970;2022-07-22T06:06:50;22.30;99.90
11629;DHT22;5870;52.320;4.970;2022-07-22T06:09:16;22.30;99.90
11629;DHT22;5870;52.320;4.970;2022-07-22T06:11:42;22.40;99.90
11629;DHT22;5870;52.320;4.970;2022-07-22T06:14:07;22.40;99.90
11629;DHT22;5870;52.320;4.970;2022-07-22T06:16:33;22.40;99.90
11629;DHT22;5870;52.320;4.970;2022-07-22T06:19:00;22.40;99.90
11629;DHT22;5870;52.320;4.970;2022-07-22T06:21:26;22.40;99.90
11629;DHT22;5870;52.320;4.970;2022-07-22T06:23:52;22.30;99.90
11629;DHT22;5870;52.320;4.970;2022-07-22T06:26:18;22.40;99.90
11629;DHT22;5870;52.320;4.970;2022-07-22T06:28:43;22.30;99.90
11629;DHT22;5870;52.320;4.970;2022-07-22T06:31:09;22.30;99.90
11629;DHT22;5870;52.320;4.970;2022-07-22T06:33:34;22.30;99.90
11629;DHT22;5870;52.320;4.970;2022-07-22T06:36:00;22.40;99.90
11629;DHT22;5870;52.320;4.970;2022-07-22T06:38:26;22.30;99.90
11629;DHT22;5870;52.320;4.970;2022-07-22T06:40:52;22.40;99.90
11629;DHT22;5870;52.320;4.970;2022-07-22T06:43:17;22.40;99.90
11629;DHT22;5870;52.320;4.970;2022-07-22T06:45:43;22.40;99.90
11629;DHT22;5870;52.320;4.970;2022-07-22T06:48:08;22.40;99.90
11629;DHT22;5870;52.320;4.970;2022-07-22T06:50:34;22.40;99.90
11629;DHT22;5870;52.320;4.970;2022-07-22T06:53:00;22.50;99.90
11629;DHT22;5870;52.320;4.970;2022-07-22T06:55:25;22.60;99.90
11629;DHT22;5870;52.320;4.970;2022-07-22T06:57:51;22.70;99.90
11629;DHT22;5870;52.320;4.970;2022-07-22T07:00:17;22.80;99.90
11629;DHT22;5870;52.320;4.970;2022-07-22T07:02:43;22.80;99.90
11629;DHT22;5870;52.320;4.970;2022-07-22T07:05:08;22.90;99.90
11629;DHT22;5870;52.320;4.970;2022-07-22T07:07:35;22.90;99.90
11629;DHT22;5870;52.320;4.970;2022-07-22T07:10:00;21.90;99.90
11629;DHT22;5870;52.320;4.970;2022-07-22T07:12:26;22.90;99.90
11629;DHT22;5870;52.320;4.970;2022-07-22T07:14:51;22.80;99.90
11629;DHT22;5870;52.320;4.970;2022-07-22T07:17:17;22.90;99.90
11629;DHT22;5870;52.320;4.970;2022-07-22T07:19:43;22.90;99.90
11629;DHT22;5870;52.320;4.970;2022-07-22T07:22:08;22.90;99.90
11629;DHT22;5870;52.320;4.970;2022-07-22T07:24:34;22.90;99.90
11629;DHT22;5870;52.320;4.970;2022-07-22T07:26:59;22.90;99.90
11629;DHT22;5870;52.320;4.970;2022-07-22T07:29:25;22.90;99.90
11629;DHT22;5870;52.320;4.970;2022-07-22T07:31:50;22.90;99.90
11629;DHT22;5870;52.320;4.970;2022-07-22T07:34:16;22.90;99.90
11629;DHT22;5870;52.320;4.970;2022-07-22T07:36:41;23.00;99.90
11629;DHT22;5870;52.320;4.970;2022-07-22T07:39:07;23.00;99.90
11629;DHT22;5870;52.320;4.970;2022-07-22T07:41:33;23.00;99.90
11629;DHT22;5870;52.320;4.970;2022-07-22T07:43:58;23.00;99.90
11629;DHT22;5870;52.320;4.970;2022-07-22T07:46:24;23.00;99.90
11629;DHT22;5870;52.320;4.970;2022-07-22T07:48:50;23.00;99.90
11629;DHT22;5870;52.320;4.970;2022-07-22T07:51:16;23.00;99.90
11629;DHT22;5870;52.320;4.970;2022-07-22T07:53:41;23.00;99.90
11629;DHT22;5870;52.320;4.970;2022-07-22T07:56:07;23.00;99.90
11629;DHT22;5870;52.320;4.970;2022-07-22T07:58:33;23.00;99.90
11629;DHT22;5870;52.320;4.970;2022-07-22T08:00:58;22.80;99.90
11629;DHT22;5870;52.320;4.970;2022-07-22T08:03:24;23.00;99.90
11629;DHT22;5870;52.320;4.970;2022-07-22T08:05:50;23.00;99.90
11629;DHT22;5870;52.320;4.970;2022-07-22T08:08:15;23.00;99.90
11629;DHT22;5870;52.320;4.970;2022-07-22T08:10:41;23.00;99.90
11629;DHT22;5870;52.320;4.970;2022-07-22T08:13:07;23.00;99.90
11629;DHT22;5870;52.320;4.970;2022-07-22T08:15:33;23.00;99.90
11629;DHT22;5870;52.320;4.970;2022-07-22T08:17:59;23.00;99.90
11629;DHT22;5870;52.320;4.970;2022-07-22T08:20:25;23.00;99.90
11629;DHT22;5870;52.320;4.970;2022-07-22T08:22:52;22.90;99.80
11629;DHT22;5870;52.320;4.970;2022-07-22T08:25:18;22.60;98.90
11629;DHT22;5870;52.320;4.970;2022-07-22T08:27:44;22.20;99.90
11629;DHT22;5870;52.320;4.970;2022-07-22T08:30:10;22.10;99.90
11629;DHT22;5870;52.320;4.970;2022-07-22T08:32:36;22.20;99.90
11629;DHT22;5870;52.320;4.970;2022-07-22T08:35:02;22.30;99.90
11629;DHT22;5870;52.320;4.970;2022-07-22T08:37:28;22.40;99.90
11629;DHT22;5870;52.320;4.970;2022-07-22T08:39:53;22.50;99.90
11629;DHT22;5870;52.320;4.970;2022-07-22T08:42:22;22.50;99.90
11629;DHT22;5870;52.320;4.970;2022-07-22T08:44:48;22.60;99.90
11629;DHT22;5870;52.320;4.970;2022-07-22T08:47:14;22.50;99.40
11629;DHT22;5870;52.320;4.970;2022-07-22T08:49:40;22.30;99.80
11629;DHT22;5870;52.320;4.970;2022-07-22T08:52:06;22.30;99.90
11629;DHT22;5870;52.320;4.970;2022-07-22T08:54:31;22.20;99.10
11629;DHT22;5870;52.320;4.970;2022-07-22T08:56:57;22.10;99.90
11629;DHT22;5870;52.320;4.970;2022-07-22T08:59:22;22.10;99.90
11629;DHT22;5870;52.320;4.970;2022-07-22T09:02:08;22.10;99.90
11629;DHT22;5870;52.320;4.970;2022-07-22T09:07:29;22.40;99.90
11629;DHT22;5870;52.320;4.970;2022-07-22T09:09:56;22.60;99.90
11629;DHT22;5870;52.320;4.970;2022-07-22T09:12:22;22.80;99.80
11629;DHT22;5870;52.320;4.970;2022-07-22T09:14:52;22.90;99.40
11629;DHT22;5870;52.320;4.970;2022-07-22T09:17:30;23.00;99.40
11629;DHT22;5870;52.320;4.970;2022-07-22T09:19:59;23.10;99.30
11629;DHT22;5870;52.320;4.970;2022-07-22T09:22:42;23.00;99.00
11629;DHT22;5870;52.320;4.970;2022-07-22T09:25:34;23.10;99.20
11629;DHT22;5870;52.320;4.970;2022-07-22T09:30:49;23.10;99.00
11629;DHT22;5870;52.320;4.970;2022-07-22T09:33:16;23.10;98.90
11629;DHT22;5870;52.320;4.970;2022-07-22T09:35:43;23.30;99.00
11629;DHT22;5870;52.320;4.970;2022-07-22T09:38:11;23.20;98.40
11629;DHT22;5870;52.320;4.970;2022-07-22T09:40:39;23.20;98.90
11629;DHT22;5870;52.320;4.970;2022-07-22T09:43:07;23.10;99.20
11629;DHT22;5870;52.320;4.970;2022-07-22T09:45:53;23.20;98.80
11629;DHT22;5870;52.320;4.970;2022-07-22T09:48:20;23.20;98.70
11629;DHT22;5870;52.320;4.970;2022-07-22T09:50:48;23.30;98.90
11629;DHT22;5870;52.320;4.970;2022-07-22T09:53:16;23.20;98.60
11629;DHT22;5870;52.320;4.970;2022-07-22T09:55:42;23.20;98.60
11629;DHT22;5870;52.320;4.970;2022-07-22T09:58:08;23.20;97.80
11629;DHT22;5870;52.320;4.970;2022-07-22T10:00:35;23.00;98.60
11629;DHT22;5870;52.320;4.970;2022-07-22T10:03:03;23.00;98.60
11629;DHT22;5870;52.320;4.970;2022-07-22T10:05:31;23.10;98.40
11629;DHT22;5870;52.320;4.970;2022-07-22T10:08:02;23.20;98.60
11629;DHT22;5870;52.320;4.970;2022-07-22T10:10:29;23.10;98.70
11629;DHT22;5870;52.320;4.970;2022-07-22T10:12:56;23.10;98.40
11629;DHT22;5870;52.320;4.970;2022-07-22T10:15:24;23.20;98.20
11629;DHT22;5870;52.320;4.970;2022-07-22T10:17:52;23.10;98.40
11629;DHT22;5870;52.320;4.970;2022-07-22T10:20:20;23.20;98.50
11629;DHT22;5870;52.320;4.970;2022-07-22T10:22:50;23.20;97.90
11629;DHT22;5870;52.320;4.970;2022-07-22T10:25:17;23.20;98.10
11629;DHT22;5870;52.320;4.970;2022-07-22T10:30:29;23.30;98.30
11629;DHT22;5870;52.320;4.970;2022-07-22T10:33:13;23.30;98.00
11629;DHT22;5870;52.320;4.970;2022-07-22T10:36:00;23.30;98.00
11629;DHT22;5870;52.320;4.970;2022-07-22T10:38:27;23.30;98.10
11629;DHT22;5870;52.320;4.970;2022-07-22T10:43:24;23.30;98.20
11629;DHT22;5870;52.320;4.970;2022-07-22T10:45:55;23.30;98.30
11629;DHT22;5870;52.320;4.970;2022-07-22T10:53:40;23.40;98.30
11629;DHT22;5870;52.320;4.970;2022-07-22T10:56:41;23.40;98.30
11629;DHT22;5870;52.320;4.970;2022-07-22T11:01:38;23.40;98.50
11629;DHT22;5870;52.320;4.970;2022-07-22T11:04:21;23.30;98.70
11629;DHT22;5870;52.320;4.970;2022-07-22T11:06:49;23.30;98.70
11629;DHT22;5870;52.320;4.970;2022-07-22T11:09:17;23.30;98.90
11629;DHT22;5870;52.320;4.970;2022-07-22T11:11:54;23.20;99.00
11629;DHT22;5870;52.320;4.970;2022-07-22T11:14:29;23.20;99.20
11629;DHT22;5870;52.320;4.970;2022-07-22T11:17:13;23.30;99.20
11629;DHT22;5870;52.320;4.970;2022-07-22T11:19:39;23.30;99.40
11629;DHT22;5870;52.320;4.970;2022-07-22T11:22:06;23.30;99.30
11629;DHT22;5870;52.320;4.970;2022-07-22T11:24:33;23.30;99.40
11629;DHT22;5870;52.320;4.970;2022-07-22T11:26:59;23.30;99.30
11629;DHT22;5870;52.320;4.970;2022-07-22T11:29:34;23.40;99.30
11629;DHT22;5870;52.320;4.970;2022-07-22T11:32:00;23.40;99.20
11629;DHT22;5870;52.320;4.970;2022-07-22T11:34:27;23.50;99.30
11629;DHT22;5870;52.320;4.970;2022-07-22T11:36:54;23.40;99.40
11629;DHT22;5870;52.320;4.970;2022-07-22T11:39:25;23.40;99.50
11629;DHT22;5870;52.320;4.970;2022-07-22T11:41:54;23.40;99.60
11629;DHT22;5870;52.320;4.970;2022-07-22T11:44:21;23.40;99.60
11629;DHT22;5870;52.320;4.970;2022-07-22T11:46:48;23.40;99.60
11629;DHT22;5870;52.320;4.970;2022-07-22T11:49:16;23.40;99.60
11629;DHT22;5870;52.320;4.970;2022-07-22T11:51:42;23.40;99.60
11629;DHT22;5870;52.320;4.970;2022-07-22T11:54:08;23.40;99.60
11629;DHT22;5870;52.320;4.970;2022-07-22T11:56:35;23.40;99.70
11629;DHT22;5870;52.320;4.970;2022-07-22T11:59:01;23.40;99.60
11629;DHT22;5870;52.320;4.970;2022-07-22T12:01:36;23.40;99.60
11629;DHT22;5870;52.320;4.970;2022-07-22T12:04:11;23.40;99.50
11629;DHT22;5870;52.320;4.970;2022-07-22T12:06:39;23.40;99.70
11629;DHT22;5870;52.320;4.970;2022-07-22T12:09:06;23.40;99.70
11629;DHT22;5870;52.320;4.970;2022-07-22T12:11:34;23.40;99.90
11629;DHT22;5870;52.320;4.970;2022-07-22T12:14:15;23.40;99.90
11629;DHT22;5870;52.320;4.970;2022-07-22T12:16:43;23.50;99.80
11629;DHT22;5870;52.320;4.970;2022-07-22T12:19:11;23.50;99.90
11629;DHT22;5870;52.320;4.970;2022-07-22T12:24:15;23.50;99.50
11629;DHT22;5870;52.320;4.970;2022-07-22T12:26:49;23.60;99.60
11629;DHT22;5870;52.320;4.970;2022-07-22T12:32:05;22.80;99.60
11629;DHT22;5870;52.320;4.970;2022-07-22T12:34:36;23.70;99.80
11629;DHT22;5870;52.320;4.970;2022-07-22T12:37:13;23.60;99.80
11629;DHT22;5870;52.320;4.970;2022-07-22T12:39:39;23.60;99.90
11629;DHT22;5870;52.320;4.970;2022-07-22T12:42:16;23.60;99.90
11629;DHT22;5870;52.320;4.970;2022-07-22T12:44:51;23.70;99.90
11629;DHT22;5870;52.320;4.970;2022-07-22T12:47:17;23.70;99.90
11629;DHT22;5870;52.320;4.970;2022-07-22T12:50:22;23.80;99.70
11629;DHT22;5870;52.320;4.970;2022-07-22T12:52:50;23.80;99.70
11629;DHT22;5870;52.320;4.970;2022-07-22T12:55:16;23.70;99.90
11629;DHT22;5870;52.320;4.970;2022-07-22T12:57:42;23.70;99.90
11629;DHT22;5870;52.320;4.970;2022-07-22T13:00:08;23.70;99.90
11629;DHT22;5870;52.320;4.970;2022-07-22T13:02:34;23.70;99.90
11629;DHT22;5870;52.320;4.970;2022-07-22T13:05:00;23.60;99.70
11629;DHT22;5870;52.320;4.970;2022-07-22T13:07:25;23.60;99.90
11629;DHT22;5870;52.320;4.970;2022-07-22T13:09:51;23.50;99.90
11629;DHT22;5870;52.320;4.970;2022-07-22T13:12:17;23.50;99.90
11629;DHT22;5870;52.320;4.970;2022-07-22T13:14:42;23.50;99.90
11629;DHT22;5870;52.320;4.970;2022-07-22T13:17:08;23.40;99.90
11629;DHT22;5870;52.320;4.970;2022-07-22T13:19:33;23.40;99.90
11629;DHT22;5870;52.320;4.970;2022-07-22T13:21:59;23.40;99.90
11629;DHT22;5870;52.320;4.970;2022-07-22T13:24:25;23.40;99.90
11629;DHT22;5870;52.320;4.970;2022-07-22T13:26:50;23.50;99.90
11629;DHT22;5870;52.320;4.970;2022-07-22T13:29:16;23.50;99.90
11629;DHT22;5870;52.320;4.970;2022-07-22T13:31:42;23.50;99.90
11629;DHT22;5870;52.320;4.970;2022-07-22T13:34:08;23.50;99.90
11629;DHT22;5870;52.320;4.970;2022-07-22T13:36:34;23.40;99.90
11629;DHT22;5870;52.320;4.970;2022-07-22T13:39:00;23.50;99.90
11629;DHT22;5870;52.320;4.970;2022-07-22T13:41:27;23.50;99.90
11629;DHT22;5870;52.320;4.970;2022-07-22T13:43:52;23.50;99.90
11629;DHT22;5870;52.320;4.970;2022-07-22T13:46:18;23.50;99.90
11629;DHT22;5870;52.320;4.970;2022-07-22T13:48:44;23.50;99.90
11629;DHT22;5870;52.320;4.970;2022-07-22T13:51:10;23.50;99.90
11629;DHT22;5870;52.320;4.970;2022-07-22T13:53:36;23.50;99.90
11629;DHT22;5870;52.320;4.970;2022-07-22T13:56:02;23.60;99.90
11629;DHT22;5870;52.320;4.970;2022-07-22T13:58:28;23.60;99.90
11629;DHT22;5870;52.320;4.970;2022-07-22T14:00:54;23.70;99.80
11629;DHT22;5870;52.320;4.970;2022-07-22T14:03:20;23.70;99.90
11629;DHT22;5870;52.320;4.970;2022-07-22T14:05:46;23.70;99.60
11629;DHT22;5870;52.320;4.970;2022-07-22T14:08:12;23.70;99.60
11629;DHT22;5870;52.320;4.970;2022-07-22T14:10:37;23.70;99.70
11629;DHT22;5870;52.320;4.970;2022-07-22T14:13:03;23.70;99.60
11629;DHT22;5870;52.320;4.970;2022-07-22T14:15:29;23.60;99.80
11629;DHT22;5870;52.320;4.970;2022-07-22T14:17:55;23.70;99.90
11629;DHT22;5870;52.320;4.970;2022-07-22T14:20:20;23.70;99.80
11629;DHT22;5870;52.320;4.970;2022-07-22T14:22:46;23.80;99.60
11629;DHT22;5870;52.320;4.970;2022-07-22T14:25:12;23.80;99.70
11629;DHT22;5870;52.320;4.970;2022-07-22T14:27:37;23.90;99.70
11629;DHT22;5870;52.320;4.970;2022-07-22T14:30:04;23.90;99.50
11629;DHT22;5870;52.320;4.970;2022-07-22T14:32:29;24.00;99.30
11629;DHT22;5870;52.320;4.970;2022-07-22T14:34:55;24.00;99.20
11629;DHT22;5870;52.320;4.970;2022-07-22T14:37:20;24.00;99.40
11629;DHT22;5870;52.320;4.970;2022-07-22T14:39:47;24.00;99.30
11629;DHT22;5870;52.320;4.970;2022-07-22T14:42:13;24.00;99.30
11629;DHT22;5870;52.320;4.970;2022-07-22T14:44:38;24.10;99.30
11629;DHT22;5870;52.320;4.970;2022-07-22T14:47:04;24.10;99.30
11629;DHT22;5870;52.320;4.970;2022-07-22T14:49:29;24.20;99.30
11629;DHT22;5870;52.320;4.970;2022-07-22T14:51:55;24.10;99.20
11629;DHT22;5870;52.320;4.970;2022-07-22T14:54:21;24.20;99.30
11629;DHT22;5870;52.320;4.970;2022-07-22T14:56:46;24.20;99.30
11629;DHT22;5870;52.320;4.970;2022-07-22T14:59:12;24.20;99.30
11629;DHT22;5870;52.320;4.970;2022-07-22T15:01:37;24.30;99.30
11629;DHT22;5870;52.320;4.970;2022-07-22T15:04:03;24.30;99.10
11629;DHT22;5870;52.320;4.970;2022-07-22T15:06:28;24.30;99.00
11629;DHT22;5870;52.320;4.970;2022-07-22T15:08:54;24.40;99.30
11629;DHT22;5870;52.320;4.970;2022-07-22T15:11:20;24.30;98.90
11629;DHT22;5870;52.320;4.970;2022-07-22T15:13:46;24.40;99.00
11629;DHT22;5870;52.320;4.970;2022-07-22T15:16:12;24.40;98.80
11629;DHT22;5870;52.320;4.970;2022-07-22T15:18:38;24.40;98.90
11629;DHT22;5870;52.320;4.970;2022-07-22T15:21:03;24.40;98.80
11629;DHT22;5870;52.320;4.970;2022-07-22T15:23:29;24.40;98.80
11629;DHT22;5870;52.320;4.970;2022-07-22T15:25:56;24.40;98.70
11629;DHT22;5870;52.320;4.970;2022-07-22T15:28:22;24.40;98.80
11629;DHT22;5870;52.320;4.970;2022-07-22T15:30:48;24.40;98.70
11629;DHT22;5870;52.320;4.970;2022-07-22T15:33:13;24.40;98.70
11629;DHT22;5870;52.320;4.970;2022-07-22T15:35:39;24.30;98.80
11629;DHT22;5870;52.320;4.970;2022-07-22T15:38:05;24.30;98.80
11629;DHT22;5870;52.320;4.970;2022-07-22T15:40:30;24.30;98.70
11629;DHT22;5870;52.320;4.970;2022-07-22T15:42:56;24.40;98.70
11629;DHT22;5870;52.320;4.970;2022-07-22T15:45:22;24.40;98.70
11629;DHT22;5870;52.320;4.970;2022-07-22T15:47:48;24.50;98.60
11629;DHT22;5870;52.320;4.970;2022-07-22T15:50:14;24.60;98.50
11629;DHT22;5870;52.320;4.970;2022-07-22T15:52:40;24.60;98.50
11629;DHT22;5870;52.320;4.970;2022-07-22T15:55:06;24.60;98.50
11629;DHT22;5870;52.320;4.970;2022-07-22T15:57:32;24.60;98.60
11629;DHT22;5870;52.320;4.970;2022-07-22T16:00:16;24.60;98.70
11629;DHT22;5870;52.320;4.970;2022-07-22T16:02:42;24.50;98.60
11629;DHT22;5870;52.320;4.970;2022-07-22T16:05:08;24.40;98.80
11629;DHT22;5870;52.320;4.970;2022-07-22T16:07:34;24.40;98.90